sensor_id;sensor_type;location;lat;lon;timestamp;pressure;altitude;pressure_sealevel;temperature;humidity
44001;BME280;29660;42.892;24.710;2023-07-16T00:04:39;97181.53;;;21.92;100.00
44001;BME280;29660;42.892;24.710;2023-07-16T00:10:01;97163.28;;;21.73;100.00
44001;BME280;29660;42.892;24.710;2023-07-16T00:15:24;97076.44;;;21.18;100.00
44001;BME280;29660;42.892;24.710;2023-07-16T00:20:46;97178.59;;;21.81;100.00
44001;BME280;29660;42.892;24.710;2023-07-16T00:26:08;97157.28;;;21.64;100.00
44001;BME280;29660;42.892;24.710;2023-07-16T00:31:31;97108.78;;;21.27;100.00
44001;BME280;29660;42.892;24.710;2023-07-16T00:36:53;97162.78;;;21.67;100.00
44001;BME280;29660;42.892;24.710;2023-07-16T00:42:15;97133.69;;;21.48;100.00
44001;BME280;29660;42.892;24.710;2023-07-16T00:47:37;97158.06;;;21.64;100.00
44001;BME280;29660;42.892;24.710;2023-07-16T00:53:01;97153.13;;;21.50;100.00
44001;BME280;29660;42.892;24.710;2023-07-16T00:58:24;97154.19;;;21.46;100.00
44001;BME280;29660;42.892;24.710;2023-07-16T01:03:46;97137.91;;;21.30;100.00
44001;BME280;29660;42.892;24.710;2023-07-16T01:09:19;97067.56;;;20.70;100.00
44001;BME280;29660;42.892;24.710;2023-07-16T01:14:42;97158.13;;;21.32;100.00
44001;BME280;29660;42.892;24.710;2023-07-16T01:20:04;97142.72;;;21.21;100.00
44001;BME280;29660;42.892;24.710;2023-07-16T01:31:01;97137.31;;;21.05;100.00
44001;BME280;29660;42.892;24.710;2023-07-16T01:36:24;97149.13;;;21.13;100.00
44001;BME280;29660;42.892;24.710;2023-07-16T01:41:47;97072.03;;;20.63;100.00
44001;BME280;29660;42.892;24.710;2023-07-16T01:47:39;97149.22;;;21.16;100.00
44001;BME280;29660;42.892;24.710;2023-07-16T01:53:05;97131.38;;;20.99;100.00
44001;BME280;29660;42.892;24.710;2023-07-16T01:58:27;97152.91;;;20.92;100.00
44001;BME280;29660;42.892;24.710;2023-07-16T02:03:49;97161.47;;;20.94;100.00
44001;BME280;29660;42.892;24.710;2023-07-16T02:09:11;97141.69;;;20.94;100.00
44001;BME280;29660;42.892;24.710;2023-07-16T02:14:34;97116.44;;;20.74;100.00
44001;BME280;29660;42.892;24.710;2023-07-16T02:19:56;97126.56;;;20.93;100.00
44001;BME280;29660;42.892;24.710;2023-07-16T02:25:18;97150.47;;;21.03;100.00
44001;BME280;29660;42.892;24.710;2023-07-16T02:30:42;97087.41;;;20.58;100.00
44001;BME280;29660;42.892;24.710;2023-07-16T02:36:06;97122.22;;;20.88;100.00
44001;BME280;29660;42.892;24.710;2023-07-16T02:41:28;97146.59;;;21.04;100.00
44001;BME280;29660;42.892;24.710;2023-07-16T02:46:51;97139.63;;;21.03;100.00
44001;BME280;29660;42.892;24.710;2023-07-16T02:52:15;97140.47;;;21.07;100.00
44001;BME280;29660;42.892;24.710;2023-07-16T02:57:38;97144.06;;;21.11;100.00
44001;BME280;29660;42.892;24.710;2023-07-16T03:03:02;97138.81;;;21.02;100.00
44001;BME280;29660;42.892;24.710;2023-07-16T03:08:24;97159.81;;;21.05;100.00
44001;BME280;29660;42.892;24.710;2023-07-16T03:13:51;97050.41;;;20.34;100.00
44001;BME280;29660;42.892;24.710;2023-07-16T03:19:14;97141.28;;;20.92;100.00
44001;BME280;29660;42.892;24.710;2023-07-16T03:24:36;97158.31;;;21.08;100.00
44001;BME280;29660;42.892;24.710;2023-07-16T03:29:58;97154.56;;;21.13;100.00
44001;BME280;29660;42.892;24.710;2023-07-16T03:35:21;97160.44;;;21.15;100.00
44001;BME280;29660;42.892;24.710;2023-07-16T03:40:48;97097.81;;;20.72;100.00
44001;BME280;29660;42.892;24.710;2023-07-16T03:46:11;97146.16;;;21.02;100.00
44001;BME280;29660;42.892;24.710;2023-07-16T03:51:33;97152.31;;;20.99;100.00
44001;BME280;29660;42.892;24.710;2023-07-16T03:56:55;97170.22;;;21.19;100.00
44001;BME280;29660;42.892;24.710;2023-07-16T04:02:19;97075.19;;;20.65;100.00
44001;BME280;29660;42.892;24.710;2023-07-16T04:07:41;96981.03;;;20.14;100.00
44001;BME280;29660;42.892;24.710;2023-07-16T04:13:03;97167.88;;;22.08;100.00
44001;BME280;29660;42.892;24.710;2023-07-16T04:18:26;97152.41;;;22.27;100.00
44001;BME280;29660;42.892;24.710;2023-07-16T04:23:48;97091.84;;;22.50;100.00
44001;BME280;29660;42.892;24.710;2023-07-16T04:29:10;97195.56;;;23.97;100.00
44001;BME280;29660;42.892;24.710;2023-07-16T04:34:32;97188.25;;;23.48;100.00
44001;BME280;29660;42.892;24.710;2023-07-16T04:39:54;97196.66;;;23.13;100.00
44001;BME280;29660;42.892;24.710;2023-07-16T04:45:16;97094.44;;;22.43;100.00
44001;BME280;29660;42.892;24.710;2023-07-16T04:50:39;97191.75;;;22.99;100.00
44001;BME280;29660;42.892;24.710;2023-07-16T04:56:01;97175.00;;;22.74;100.00
44001;BME280;29660;42.892;24.710;2023-07-16T05:01:23;97199.22;;;22.83;100.00
44001;BME280;29660;42.892;24.710;2023-07-16T05:06:47;97206.97;;;22.81;100.00
44001;BME280;29660;42.892;24.710;2023-07-16T05:12:09;97122.75;;;22.19;100.00
44001;BME280;29660;42.892;24.710;2023-07-16T05:17:31;97220.38;;;23.12;100.00
44001;BME280;29660;42.892;24.710;2023-07-16T05:22:53;97207.31;;;23.48;100.00
44001;BME280;29660;42.892;24.710;2023-07-16T05:28:17;97125.25;;;22.73;100.00
44001;BME280;29660;42.892;24.710;2023-07-16T05:33:40;97201.50;;;23.00;100.00
44001;BME280;29660;42.892;24.710;2023-07-16T05:39:02;97222.56;;;23.30;100.00
44001;BME280;29660;42.892;24.710;2023-07-16T05:44:24;97157.13;;;23.19;100.00
44001;BME280;29660;42.892;24.710;2023-07-16T05:49:47;97229.69;;;23.87;100.00
44001;BME280;29660;42.892;24.710;2023-07-16T05:55:09;97116.34;;;23.22;100.00
44001;BME280;29660;42.892;24.710;2023-07-16T06:00:31;97217.94;;;24.40;100.00
44001;BME280;29660;42.892;24.710;2023-07-16T06:05:54;97189.72;;;24.59;100.00
44001;BME280;29660;42.892;24.710;2023-07-16T06:11:16;97120.09;;;24.35;100.00
44001;BME280;29660;42.892;24.710;2023-07-16T06:16:38;97213.28;;;25.18;100.00
44001;BME280;29660;42.892;24.710;2023-07-16T06:22:01;97209.13;;;25.32;100.00
44001;BME280;29660;42.892;24.710;2023-07-16T06:27:23;97213.78;;;25.83;100.00
44001;BME280;29660;42.892;24.710;2023-07-16T06:32:45;97199.50;;;26.14;96.94
44001;BME280;29660;42.892;24.710;2023-07-16T06:38:07;97200.44;;;26.54;97.35
44001;BME280;29660;42.892;24.710;2023-07-16T06:43:29;97201.72;;;26.96;94.26
44001;BME280;29660;42.892;24.710;2023-07-16T06:48:52;97193.53;;;27.25;91.67
44001;BME280;29660;42.892;24.710;2023-07-16T06:54:14;97197.03;;;27.50;88.90
44001;BME280;29660;42.892;24.710;2023-07-16T06:59:36;97193.47;;;27.71;88.82
44001;BME280;29660;42.892;24.710;2023-07-16T07:04:58;97112.47;;;27.63;86.62
44001;BME280;29660;42.892;24.710;2023-07-16T07:10:21;97092.88;;;27.79;84.33
44001;BME280;29660;42.892;24.710;2023-07-16T07:15:43;97178.69;;;28.60;77.25
44001;BME280;29660;42.892;24.710;2023-07-16T07:21:05;97174.66;;;28.75;76.40
44001;BME280;29660;42.892;24.710;2023-07-16T07:26:27;97169.00;;;29.04;76.37
44001;BME280;29660;42.892;24.710;2023-07-16T07:31:50;97173.41;;;29.39;70.21
44001;BME280;29660;42.892;24.710;2023-07-16T07:37:12;97091.50;;;28.82;69.84
44001;BME280;29660;42.892;24.710;2023-07-16T07:42:35;97135.66;;;29.43;75.80
44001;BME280;29660;42.892;24.710;2023-07-16T07:47:57;97087.34;;;29.49;69.07
44001;BME280;29660;42.892;24.710;2023-07-16T07:53:19;97172.53;;;30.25;62.32
44001;BME280;29660;42.892;24.710;2023-07-16T07:58:41;97164.09;;;30.39;63.68
44001;BME280;29660;42.892;24.710;2023-07-16T08:04:04;97167.53;;;30.47;64.29
44001;BME280;29660;42.892;24.710;2023-07-16T08:09:26;97187.00;;;30.60;62.08
44001;BME280;29660;42.892;24.710;2023-07-16T08:14:49;97187.63;;;30.74;63.10
44001;BME280;29660;42.892;24.710;2023-07-16T08:20:12;97173.31;;;30.83;64.68
44001;BME280;29660;42.892;24.710;2023-07-16T08:25:35;97182.22;;;31.18;64.71
44001;BME280;29660;42.892;24.710;2023-07-16T08:30:57;97096.88;;;30.64;64.76
44001;BME280;29660;42.892;24.710;2023-07-16T08:36:19;97184.47;;;30.99;64.09
44001;BME280;29660;42.892;24.710;2023-07-16T08:41:42;97191.84;;;31.33;68.19
44001;BME280;29660;42.892;24.710;2023-07-16T08:47:05;97178.56;;;31.48;65.07
44001;BME280;29660;42.892;24.710;2023-07-16T08:52:29;97174.81;;;31.38;64.86
44001;BME280;29660;42.892;24.710;2023-07-16T08:57:51;97096.69;;;31.25;65.48
44001;BME280;29660;42.892;24.710;2023-07-16T09:03:14;97181.22;;;31.98;67.76
44001;BME280;29660;42.892;24.710;2023-07-16T09:08:38;97180.22;;;31.89;61.31
44001;BME280;29660;42.892;24.710;2023-07-16T09:14:03;97173.00;;;31.95;64.31
44001;BME280;29660;42.892;24.710;2023-07-16T09:19:25;97167.63;;;32.28;62.88
44001;BME280;29660;42.892;24.710;2023-07-16T09:24:48;97167.03;;;32.56;61.32
44001;BME280;29660;42.892;24.710;2023-07-16T09:30:15;97164.97;;;32.60;59.44
44001;BME280;29660;42.892;24.710;2023-07-16T09:35:37;97159.91;;;32.75;58.28
44001;BME280;29660;42.892;24.710;2023-07-16T09:41:02;97169.56;;;32.67;59.45
44001;BME280;29660;42.892;24.710;2023-07-16T09:46:24;97080.41;;;32.14;55.96
44001;BME280;29660;42.892;24.710;2023-07-16T09:51:48;97152.47;;;32.72;55.12
44001;BME280;29660;42.892;24.710;2023-07-16T09:57:13;97146.44;;;32.77;54.28
44001;BME280;29660;42.892;24.710;2023-07-16T10:02:36;97062.13;;;32.20;54.47
44001;BME280;29660;42.892;24.710;2023-07-16T10:07:59;97057.31;;;32.24;55.13
44001;BME280;29660;42.892;24.710;2023-07-16T10:13:23;97146.34;;;32.64;55.65
44001;BME280;29660;42.892;24.710;2023-07-16T10:18:50;97114.72;;;32.49;54.70
44001;BME280;29660;42.892;24.710;2023-07-16T10:24:18;97143.94;;;32.66;54.97
44001;BME280;29660;42.892;24.710;2023-07-16T10:29:40;97147.19;;;32.61;53.58
44001;BME280;29660;42.892;24.710;2023-07-16T10:35:04;97144.16;;;32.39;53.99
44001;BME280;29660;42.892;24.710;2023-07-16T10:40:27;97138.66;;;32.56;50.31
44001;BME280;29660;42.892;24.710;2023-07-16T10:45:50;97138.59;;;32.92;50.67
44001;BME280;29660;42.892;24.710;2023-07-16T10:51:15;97138.38;;;33.03;51.57
44001;BME280;29660;42.892;24.710;2023-07-16T10:56:38;97136.72;;;33.21;50.07
44001;BME280;29660;42.892;24.710;2023-07-16T11:02:00;97074.63;;;32.77;48.84
44001;BME280;29660;42.892;24.710;2023-07-16T11:07:22;97132.06;;;33.02;48.54
44001;BME280;29660;42.892;24.710;2023-07-16T11:12:51;97130.56;;;33.30;48.08
44001;BME280;29660;42.892;24.710;2023-07-16T11:18:16;97116.19;;;33.52;46.08
44001;BME280;29660;42.892;24.710;2023-07-16T11:23:39;97092.53;;;33.51;45.21
44001;BME280;29660;42.892;24.710;2023-07-16T11:29:12;97114.41;;;33.74;43.87
44001;BME280;29660;42.892;24.710;2023-07-16T11:34:34;97112.66;;;33.80;42.46
44001;BME280;29660;42.892;24.710;2023-07-16T11:39:57;97120.97;;;33.80;43.05
44001;BME280;29660;42.892;24.710;2023-07-16T11:45:25;97116.19;;;33.81;41.53
44001;BME280;29660;42.892;24.710;2023-07-16T11:50:50;97108.97;;;34.00;42.49
44001;BME280;29660;42.892;24.710;2023-07-16T11:56:12;97114.31;;;34.32;42.04
44001;BME280;29660;42.892;24.710;2023-07-16T12:01:34;97112.94;;;33.99;41.70
44001;BME280;29660;42.892;24.710;2023-07-16T12:06:56;97058.00;;;33.84;41.47
44001;BME280;29660;42.892;24.710;2023-07-16T12:12:19;97024.19;;;33.64;41.98
44001;BME280;29660;42.892;24.710;2023-07-16T12:17:41;97119.19;;;34.28;42.65
44001;BME280;29660;42.892;24.710;2023-07-16T12:23:03;97029.44;;;33.87;42.56
44001;BME280;29660;42.892;24.710;2023-07-16T12:28:25;97061.38;;;33.76;42.47
44001;BME280;29660;42.892;24.710;2023-07-16T12:33:48;97036.16;;;33.44;42.38
44001;BME280;29660;42.892;24.710;2023-07-16T12:39:11;97117.59;;;34.02;41.77
44001;BME280;29660;42.892;24.710;2023-07-16T12:44:33;97115.84;;;34.08;40.45
44001;BME280;29660;42.892;24.710;2023-07-16T12:49:55;97116.28;;;34.19;40.70
44001;BME280;29660;42.892;24.710;2023-07-16T12:55:17;97024.75;;;33.71;40.01
44001;BME280;29660;42.892;24.710;2023-07-16T13:00:41;97107.44;;;34.24;42.84
44001;BME280;29660;42.892;24.710;2023-07-16T13:06:06;97105.06;;;34.52;40.48
44001;BME280;29660;42.892;24.710;2023-07-16T13:11:28;97116.78;;;34.56;42.03
44001;BME280;29660;42.892;24.710;2023-07-16T13:16:50;97106.81;;;34.58;39.93
44001;BME280;29660;42.892;24.710;2023-07-16T13:22:13;97088.88;;;34.63;39.29
44001;BME280;29660;42.892;24.710;2023-07-16T13:27:36;97009.09;;;34.07;39.33
44001;BME280;29660;42.892;24.710;2023-07-16T13:32:58;97087.19;;;34.78;37.61
44001;BME280;29660;42.892;24.710;2023-07-16T13:38:21;97084.31;;;34.69;38.95
44001;BME280;29660;42.892;24.710;2023-07-16T13:43:43;97085.75;;;34.61;38.13
44001;BME280;29660;42.892;24.710;2023-07-16T13:49:05;97028.94;;;34.05;38.81
44001;BME280;29660;42.892;24.710;2023-07-16T13:54:27;97075.56;;;34.32;39.39
44001;BME280;29660;42.892;24.710;2023-07-16T13:59:49;97073.09;;;34.34;39.53
44001;BME280;29660;42.892;24.710;2023-07-16T14:05:11;97028.47;;;34.07;40.09
44001;BME280;29660;42.892;24.710;2023-07-16T14:10:33;97044.34;;;34.32;39.87
44001;BME280;29660;42.892;24.710;2023-07-16T14:15:56;97061.97;;;34.51;39.31
44001;BME280;29660;42.892;24.710;2023-07-16T14:21:18;96985.72;;;33.95;40.96
44001;BME280;29660;42.892;24.710;2023-07-16T14:26:40;97074.25;;;34.50;40.92
44001;BME280;29660;42.892;24.710;2023-07-16T14:32:03;97073.56;;;34.45;41.56
44001;BME280;29660;42.892;24.710;2023-07-16T14:37:26;96976.75;;;33.78;39.83
44001;BME280;29660;42.892;24.710;2023-07-16T14:42:48;97057.84;;;34.17;41.53
44001;BME280;29660;42.892;24.710;2023-07-16T14:48:10;96902.75;;;33.15;39.93
44001;BME280;29660;42.892;24.710;2023-07-16T14:53:32;97051.53;;;34.04;40.88
44001;BME280;29660;42.892;24.710;2023-07-16T14:58:55;97054.84;;;34.11;41.21
44001;BME280;29660;42.892;24.710;2023-07-16T15:04:17;97055.50;;;34.03;42.17
44001;BME280;29660;42.892;24.710;2023-07-16T15:09:39;97055.53;;;34.15;43.88
44001;BME280;29660;42.892;24.710;2023-07-16T15:15:01;97025.94;;;34.00;43.29
44001;BME280;29660;42.892;24.710;2023-07-16T15:20:25;97055.28;;;34.10;44.27
44001;BME280;29660;42.892;24.710;2023-07-16T15:25:48;97060.59;;;34.04;42.99
44001;BME280;29660;42.892;24.710;2023-07-16T15:31:10;97045.31;;;34.00;43.82
44001;BME280;29660;42.892;24.710;2023-07-16T15:36:34;97056.81;;;34.11;44.10
44001;BME280;29660;42.892;24.710;2023-07-16T15:41:56;97036.53;;;33.88;43.63
44001;BME280;29660;42.892;24.710;2023-07-16T15:47:18;97028.44;;;33.81;44.40
44001;BME280;29660;42.892;24.710;2023-07-16T15:52:41;97049.34;;;33.82;44.12
44001;BME280;29660;42.892;24.710;2023-07-16T15:58:05;97065.66;;;33.93;44.11
44001;BME280;29660;42.892;24.710;2023-07-16T16:03:28;97056.78;;;33.85;45.14
44001;BME280;29660;42.892;24.710;2023-07-16T16:08:50;97061.28;;;33.79;45.66
44001;BME280;29660;42.892;24.710;2023-07-16T16:14:12;97035.13;;;33.55;44.44
44001;BME280;29660;42.892;24.710;2023-07-16T16:19:35;97058.59;;;33.63;45.75
44001;BME280;29660;42.892;24.710;2023-07-16T16:24:57;97074.72;;;33.52;49.07
44001;BME280;29660;42.892;24.710;2023-07-16T16:30:22;97077.50;;;33.35;55.97
44001;BME280;29660;42.892;24.710;2023-07-16T16:35:44;96929.69;;;32.20;58.25
44001;BME280;29660;42.892;24.710;2023-07-16T16:41:07;97082.13;;;32.77;58.96
44001;BME280;29660;42.892;24.710;2023-07-16T16:46:32;97090.09;;;32.38;61.90
44001;BME280;29660;42.892;24.710;2023-07-16T16:51:54;97076.19;;;31.89;67.17
44001;BME280;29660;42.892;24.710;2023-07-16T16:57:16;97103.38;;;31.67;69.11
44001;BME280;29660;42.892;24.710;2023-07-16T17:02:39;97061.25;;;31.03;72.16
44001;BME280;29660;42.892;24.710;2023-07-16T17:08:01;97045.31;;;30.68;73.62
44001;BME280;29660;42.892;24.710;2023-07-16T17:13:24;97110.41;;;31.05;74.41
44001;BME280;29660;42.892;24.710;2023-07-16T17:18:47;97107.56;;;30.62;80.89
44001;BME280;29660;42.892;24.710;2023-07-16T17:24:09;97121.31;;;30.35;84.72
44001;BME280;29660;42.892;24.710;2023-07-16T17:29:33;97120.75;;;30.16;87.44
44001;BME280;29660;42.892;24.710;2023-07-16T17:34:55;97127.06;;;29.79;90.89
44001;BME280;29660;42.892;24.710;2023-07-16T17:40:17;97130.84;;;29.54;89.84
44001;BME280;29660;42.892;24.710;2023-07-16T17:45:41;97053.00;;;28.89;89.71
44001;BME280;29660;42.892;24.710;2023-07-16T17:51:03;97124.09;;;29.25;88.02
44001;BME280;29660;42.892;24.710;2023-07-16T17:56:26;97128.94;;;29.10;88.48
44001;BME280;29660;42.892;24.710;2023-07-16T18:01:49;96928.50;;;27.61;90.42
44001;BME280;29660;42.892;24.710;2023-07-16T18:07:11;97140.13;;;28.81;95.04
44001;BME280;29660;42.892;24.710;2023-07-16T18:12:34;97141.00;;;28.68;96.95
44001;BME280;29660;42.892;24.710;2023-07-16T18:17:56;97148.19;;;28.44;97.12
44001;BME280;29660;42.892;24.710;2023-07-16T18:23:18;96898.75;;;26.64;93.54
44001;BME280;29660;42.892;24.710;2023-07-16T18:28:40;97149.13;;;28.12;93.60
44001;BME280;29660;42.892;24.710;2023-07-16T18:34:02;97164.06;;;27.97;93.70
44001;BME280;29660;42.892;24.710;2023-07-16T18:39:25;97168.44;;;27.80;94.90
44001;BME280;29660;42.892;24.710;2023-07-16T18:44:47;97179.78;;;27.68;96.03
44001;BME280;29660;42.892;24.710;2023-07-16T18:50:12;97182.16;;;27.51;97.53
44001;BME280;29660;42.892;24.710;2023-07-16T18:55:34;97182.56;;;27.39;97.61
44001;BME280;29660;42.892;24.710;2023-07-16T19:00:56;97109.03;;;26.84;97.19
44001;BME280;29660;42.892;24.710;2023-07-16T19:06:18;97184.91;;;27.15;96.85
44001;BME280;29660;42.892;24.710;2023-07-16T19:11:42;97175.91;;;26.97;96.47
44001;BME280;29660;42.892;24.710;2023-07-16T19:17:12;97082.34;;;26.20;96.00
44001;BME280;29660;42.892;24.710;2023-07-16T19:22:34;97174.28;;;26.67;97.69
44001;BME280;29660;42.892;24.710;2023-07-16T19:27:57;97011.00;;;25.38;100.00
44001;BME280;29660;42.892;24.710;2023-07-16T19:33:19;97198.03;;;26.42;100.00
44001;BME280;29660;42.892;24.710;2023-07-16T19:38:42;97137.28;;;25.79;100.00
44001;BME280;29660;42.892;24.710;2023-07-16T19:44:04;97197.84;;;25.95;100.00
44001;BME280;29660;42.892;24.710;2023-07-16T19:49:27;97207.97;;;25.88;100.00
44001;BME280;29660;42.892;24.710;2023-07-16T19:54:50;96822.91;;;23.24;100.00
44001;BME280;29660;42.892;24.710;2023-07-16T20:00:12;97210.53;;;25.66;100.00
44001;BME280;29660;42.892;24.710;2023-07-16T20:05:38;97216.72;;;25.60;100.00
44001;BME280;29660;42.892;24.710;2023-07-16T20:11:04;97184.13;;;25.30;100.00
44001;BME280;29660;42.892;24.710;2023-07-16T20:16:26;97202.53;;;25.36;100.00
44001;BME280;29660;42.892;24.710;2023-07-16T20:21:51;97145.63;;;24.94;100.00
44001;BME280;29660;42.892;24.710;2023-07-16T20:27:15;97109.84;;;24.58;100.00
44001;BME280;29660;42.892;24.710;2023-07-16T20:32:38;97210.53;;;25.15;100.00
44001;BME280;29660;42.892;24.710;2023-07-16T20:38:03;97194.66;;;24.87;100.00
44001;BME280;29660;42.892;24.710;2023-07-16T20:43:25;97212.16;;;24.82;100.00
44001;BME280;29660;42.892;24.710;2023-07-16T20:48:48;97197.97;;;24.66;100.00
44001;BME280;29660;42.892;24.710;2023-07-16T20:54:10;97212.31;;;24.59;100.00
44001;BME280;29660;42.892;24.710;2023-07-16T20:59:32;97200.00;;;24.39;100.00
44001;BME280;29660;42.892;24.710;2023-07-16T21:04:54;97201.44;;;24.29;100.00
44001;BME280;29660;42.892;24.710;2023-07-16T21:10:17;97207.59;;;24.22;100.00
44001;BME280;29660;42.892;24.710;2023-07-16T21:15:44;97207.81;;;24.10;100.00
44001;BME280;29660;42.892;24.710;2023-07-16T21:21:06;97208.88;;;24.02;100.00
44001;BME280;29660;42.892;24.710;2023-07-16T21:26:29;96964.22;;;22.30;100.00
44001;BME280;29660;42.892;24.710;2023-07-16T21:37:13;97227.53;;;23.70;100.00
44001;BME280;29660;42.892;24.710;2023-07-16T21:42:35;97202.59;;;23.45;100.00
44001;BME280;29660;42.892;24.710;2023-07-16T21:47:58;97222.72;;;23.63;100.00
44001;BME280;29660;42.892;24.710;2023-07-16T21:53:20;97099.94;;;22.69;100.00
44001;BME280;29660;42.892;24.710;2023-07-16T21:58:42;97242.41;;;23.30;100.00
44001;BME280;29660;42.892;24.710;2023-07-16T22:04:04;97236.50;;;23.24;100.00
44001;BME280;29660;42.892;24.710;2023-07-16T22:09:27;97239.53;;;23.19;100.00
44001;BME280;29660;42.892;24.710;2023-07-16T22:14:50;97248.41;;;23.16;100.00
44001;BME280;29660;42.892;24.710;2023-07-16T22:20:12;97159.22;;;22.60;100.00
44001;BME280;29660;42.892;24.710;2023-07-16T22:25:34;97234.69;;;23.09;100.00
44001;BME280;29660;42.892;24.710;2023-07-16T22:30:57;97225.56;;;22.98;100.00
44001;BME280;29660;42.892;24.710;2023-07-16T22:36:19;97126.06;;;22.12;100.00
44001;BME280;29660;42.892;24.710;2023-07-16T22:41:41;97230.94;;;22.75;100.00
44001;BME280;29660;42.892;24.710;2023-07-16T22:47:03;97214.44;;;22.64;100.00
44001;BME280;29660;42.892;24.710;2023-07-16T22:52:26;97225.38;;;22.68;100.00
44001;BME280;29660;42.892;24.710;2023-07-16T22:57:48;97219.38;;;22.59;100.00
44001;BME280;29660;42.892;24.710;2023-07-16T23:03:10;97227.38;;;22.51;100.00
44001;BME280;29660;42.892;24.710;2023-07-16T23:08:35;97202.94;;;22.32;100.00
44001;BME280;29660;42.892;24.710;2023-07-16T23:13:57;97230.56;;;22.34;100.00
44001;BME280;29660;42.892;24.710;2023-07-16T23:19:19;97047.56;;;21.10;100.00
44001;BME280;29660;42.892;24.710;2023-07-16T23:24:41;97228.91;;;22.29;100.00
44001;BME280;29660;42.892;24.710;2023-07-16T23:30:04;97126.66;;;21.63;100.00
44001;BME280;29660;42.892;24.710;2023-07-16T23:35:26;97232.19;;;22.19;100.00
44001;BME280;29660;42.892;24.710;2023-07-16T23:40:48;97229.56;;;22.07;100.00
44001;BME280;29660;42.892;24.710;2023-07-16T23:46:11;97207.53;;;21.93;100.00
44001;BME280;29660;42.892;24.710;2023-07-16T23:51:33;97230.16;;;21.97;100.00
44001;BME280;29660;42.892;24.710;2023-07-16T23:56:55;97223.13;;;21.96;100.00
